createdAt,value
2019-05-30T00:02:44.996Z,55.70
2019-05-30T00:08:04.464Z,55.60
2019-05-30T00:13:05.144Z,55.40
2019-05-30T00:18:05.166Z,56.10
2019-05-30T00:23:04.964Z,56.30
2019-05-30T00:28:05.182Z,56.20
2019-05-30T00:33:05.221Z,56.60
2019-05-30T00:38:06.074Z,56.20
2019-05-30T00:43:06.300Z,56.60
2019-05-30T00:48:06.530Z,56.40
2019-05-30T00:53:07.037Z,56.70
2019-05-30T00:58:07.444Z,56.80
2019-05-30T01:03:09.060Z,56.60
2019-05-30T01:08:08.624Z,56.70
2019-05-30T01:13:08.348Z,57.30
2019-05-30T01:18:08.085Z,57.00
2019-05-30T01:23:07.738Z,57.10
2019-05-30T01:28:07.951Z,57.30
2019-05-30T01:33:08.134Z,57.20
2019-05-30T01:38:08.205Z,56.90
2019-05-30T01:43:08.284Z,57.30
2019-05-30T01:48:08.577Z,57.60
2019-05-30T01:53:08.864Z,57.80
2019-05-30T01:58:09.211Z,58.20
2019-05-30T02:03:09.767Z,58.30
2019-05-30T02:08:10.231Z,58.20
2019-05-30T02:13:10.408Z,58.20
2019-05-30T02:18:10.377Z,58.20
2019-05-30T02:23:11.487Z,58.50
2019-05-30T02:28:11.359Z,58.10
2019-05-30T02:33:12.883Z,58.40
2019-05-30T02:38:12.378Z,58.60
2019-05-30T02:43:12.514Z,58.70
2019-05-30T02:48:12.619Z,58.50
2019-05-30T02:53:13.145Z,58.60
2019-05-30T02:58:13.343Z,58.60
2019-05-30T03:03:14.554Z,58.90
2019-05-30T03:08:14.927Z,58.70
2019-05-30T03:13:14.812Z,58.90
2019-05-30T03:18:15.153Z,58.50
2019-05-30T03:23:15.231Z,58.90
2019-05-30T03:28:14.943Z,59.00
2019-05-30T03:33:32.304Z,58.70
2019-05-30T03:38:16.445Z,58.80
2019-05-30T03:43:16.334Z,59.50
2019-05-30T03:48:18.664Z,59.60
2019-05-30T03:53:18.708Z,59.50
2019-05-30T03:58:29.129Z,59.70
2019-05-30T04:03:42.679Z,59.90
2019-05-30T04:08:45.327Z,60.10
2019-05-30T04:13:54.667Z,60.00
2019-05-30T04:18:54.341Z,59.90
2019-05-30T04:23:54.934Z,60.30
2019-05-30T04:28:54.671Z,60.20
2019-05-30T04:33:54.351Z,60.10
2019-05-30T04:38:54.092Z,60.50
2019-05-30T04:43:53.734Z,60.30
2019-05-30T04:48:54.092Z,60.30
2019-05-30T04:53:53.844Z,60.50
2019-05-30T04:58:54.467Z,60.60
2019-05-30T05:03:54.112Z,60.10
2019-05-30T05:08:53.785Z,60.40
2019-05-30T05:13:53.431Z,60.30
2019-05-30T05:18:53.148Z,59.70
2019-05-30T05:23:52.864Z,60.20
2019-05-30T05:28:52.518Z,60.10
2019-05-30T05:33:56.592Z,60.10
2019-05-30T05:38:53.536Z,60.50
2019-05-30T05:43:53.262Z,60.00
2019-05-30T05:48:52.961Z,60.00
2019-05-30T05:53:52.692Z,60.00
2019-05-30T05:58:52.583Z,59.80
2019-05-30T06:03:52.243Z,60.10
2019-05-30T06:08:51.962Z,59.90
2019-05-30T06:13:52.128Z,59.90
2019-05-30T06:18:52.040Z,59.70
2019-05-30T06:23:51.884Z,59.80
2019-05-30T06:28:51.539Z,59.80
2019-05-30T06:33:51.197Z,59.60
2019-05-30T06:38:50.907Z,59.80
2019-05-30T06:43:50.575Z,59.80
2019-05-30T06:48:50.298Z,59.50
2019-05-30T06:53:50.273Z,59.60
2019-05-30T06:58:49.919Z,59.50
2019-05-30T07:03:49.644Z,59.70
2019-05-30T07:08:49.283Z,59.60
2019-05-30T07:13:48.935Z,59.70
2019-05-30T07:18:48.603Z,59.70
2019-05-30T07:23:48.275Z,59.80
2019-05-30T07:28:48.357Z,59.70
2019-05-30T07:33:48.069Z,59.80
2019-05-30T07:38:47.770Z,60.60
2019-05-30T07:43:47.428Z,60.00
2019-05-30T07:48:47.086Z,59.80
2019-05-30T07:53:47.468Z,59.30
2019-05-30T07:58:47.211Z,59.90
2019-05-30T08:03:46.855Z,59.40
2019-05-30T08:08:46.544Z,59.00
2019-05-30T08:13:46.197Z,59.10
2019-05-30T08:18:45.852Z,59.10
2019-05-30T08:23:45.491Z,59.00
2019-05-30T08:28:45.696Z,59.00
2019-05-30T08:33:47.429Z,59.10
2019-05-30T08:38:48.277Z,59.00
2019-05-30T08:43:48.216Z,59.00
2019-05-30T08:48:47.842Z,59.60
2019-05-30T08:53:47.475Z,58.60
2019-05-30T08:58:47.479Z,58.90
2019-05-30T09:03:47.176Z,58.20
2019-05-30T09:08:46.843Z,58.00
2019-05-30T09:13:46.795Z,58.00
2019-05-30T09:18:47.469Z,57.70
2019-05-30T09:23:48.071Z,57.60
2019-05-30T09:28:48.306Z,57.70
2019-05-30T09:33:48.672Z,57.30
2019-05-30T09:38:49.653Z,57.30
2019-05-30T09:43:50.255Z,57.10
2019-05-30T09:48:51.731Z,57.20
2019-05-30T09:53:51.458Z,57.70
2019-05-30T09:58:51.849Z,58.00
2019-05-30T10:03:52.310Z,57.80
2019-05-30T10:08:53.077Z,57.90
2019-05-30T10:13:52.980Z,57.80
2019-05-30T10:18:53.532Z,58.10
2019-05-30T10:23:53.763Z,58.10
2019-05-30T10:28:53.528Z,58.40
2019-05-30T10:33:53.305Z,58.50
2019-05-30T10:38:53.948Z,59.20
2019-05-30T10:43:53.768Z,58.70
2019-05-30T10:48:54.754Z,59.90
2019-05-30T10:53:55.875Z,60.10
2019-05-30T10:58:55.523Z,60.00
2019-05-30T11:03:55.242Z,60.00
2019-05-30T11:08:58.261Z,60.20
2019-05-30T11:13:57.903Z,60.50
2019-05-30T11:18:57.962Z,60.80
2019-05-30T11:23:58.371Z,61.10
2019-05-30T11:28:58.838Z,61.10
2019-05-30T11:33:59.226Z,61.10
2019-05-30T11:38:59.428Z,61.50
2019-05-30T11:44:00.824Z,61.60
2019-05-30T11:49:01.108Z,61.60
2019-05-30T11:54:01.195Z,61.50
2019-05-30T11:59:01.916Z,62.10
2019-05-30T12:04:01.568Z,62.30
2019-05-30T12:09:01.288Z,62.60
2019-05-30T12:14:02.820Z,62.80
2019-05-30T12:19:02.642Z,62.60
2019-05-30T12:24:02.760Z,62.40
2019-05-30T12:29:03.746Z,62.50
2019-05-30T12:34:03.420Z,62.30
2019-05-30T12:39:03.852Z,62.20
2019-05-30T12:44:03.489Z,62.00
2019-05-30T12:49:03.655Z,62.20
2019-05-30T12:54:03.939Z,62.10
2019-05-30T12:59:03.679Z,62.10
2019-05-30T13:04:03.478Z,62.00
2019-05-30T13:09:03.835Z,61.70
2019-05-30T13:14:03.548Z,61.40
2019-05-30T13:19:04.414Z,61.80
2019-05-30T13:24:04.231Z,61.60
2019-05-30T13:29:04.366Z,61.60
2019-05-30T13:34:04.919Z,61.40
2019-05-30T13:39:07.468Z,61.40
2019-05-30T13:44:09.597Z,61.90
2019-05-30T13:49:08.861Z,61.90
2019-05-30T13:54:09.320Z,62.00
2019-05-30T13:59:10.126Z,62.10
2019-05-30T14:04:10.451Z,62.40
2019-05-30T14:09:10.487Z,62.00
2019-05-30T14:14:11.008Z,61.40
2019-05-30T14:19:12.570Z,61.30
2019-05-30T14:24:12.131Z,61.10
2019-05-30T14:29:12.036Z,61.10
2019-05-30T14:34:12.247Z,61.30
2019-05-30T14:39:13.255Z,61.20
2019-05-30T14:44:12.958Z,61.10
2019-05-30T14:49:12.805Z,61.10
2019-05-30T14:54:13.178Z,60.80
2019-05-30T14:59:13.417Z,60.40
2019-05-30T15:04:13.404Z,60.40
2019-05-30T15:09:22.154Z,60.20
2019-05-30T15:14:14.900Z,61.40
2019-05-30T15:19:14.620Z,60.90
2019-05-30T15:24:14.374Z,60.70
2019-05-30T15:29:14.195Z,60.90
2019-05-30T15:34:14.717Z,60.70
2019-05-30T15:39:15.069Z,60.70
2019-05-30T15:44:16.309Z,60.70
2019-05-30T15:49:16.433Z,60.60
2019-05-30T15:54:17.128Z,60.70
2019-05-30T15:59:17.751Z,60.90
2019-05-30T16:04:18.279Z,61.10
2019-05-30T16:09:18.893Z,61.60
2019-05-30T16:14:19.407Z,61.50
2019-05-30T16:19:24.202Z,61.00
2019-05-30T16:24:20.520Z,61.70
2019-05-30T16:29:20.176Z,62.00
2019-05-30T16:34:20.155Z,62.30
2019-05-30T16:39:20.446Z,61.70
2019-05-30T16:44:20.498Z,62.00
2019-05-30T16:49:21.127Z,62.30
2019-05-30T16:54:21.361Z,62.70
2019-05-30T16:59:22.663Z,62.80
2019-05-30T17:04:23.094Z,63.10
2019-05-30T17:09:23.460Z,63.90
2019-05-30T17:14:23.894Z,64.10
2019-05-30T17:19:24.496Z,63.90
2019-05-30T17:24:25.282Z,64.40
2019-05-30T17:29:25.745Z,65.10
2019-05-30T17:34:26.342Z,64.30
2019-05-30T17:39:26.699Z,65.10
2019-05-30T17:44:27.221Z,65.20
2019-05-30T17:49:27.999Z,65.00
2019-05-30T17:54:28.248Z,66.00
2019-05-30T17:59:28.530Z,65.40
2019-05-30T18:04:28.699Z,66.90
2019-05-30T18:09:29.139Z,67.00
2019-05-30T18:14:29.263Z,66.60
2019-05-30T18:19:29.464Z,66.90
2019-05-30T18:24:29.645Z,67.00
2019-05-30T18:29:30.220Z,67.60
2019-05-30T18:34:30.500Z,66.90
2019-05-30T18:39:30.791Z,67.40
2019-05-30T18:44:32.801Z,67.00
2019-05-30T18:49:31.998Z,67.10
2019-05-30T18:54:32.810Z,67.50
2019-05-30T18:59:33.228Z,66.90
2019-05-30T19:04:44.856Z,67.30
2019-05-30T19:09:44.747Z,68.00
2019-05-30T19:14:44.763Z,67.60
2019-05-30T19:19:44.415Z,68.00
2019-05-30T19:24:44.202Z,68.40
2019-05-30T19:29:44.270Z,68.80
2019-05-30T19:34:44.175Z,68.30
2019-05-30T19:39:43.845Z,68.60
2019-05-30T19:44:43.492Z,68.30
2019-05-30T19:49:43.176Z,68.50
2019-05-30T19:54:43.163Z,69.00
2019-05-30T19:59:42.819Z,68.90
2019-05-30T20:04:42.476Z,69.30
2019-05-30T20:09:42.135Z,69.70
2019-05-30T20:14:41.864Z,69.70
2019-05-30T20:19:42.014Z,70.50
2019-05-30T20:24:42.631Z,69.80
2019-05-30T20:29:46.052Z,70.50
2019-05-30T20:34:44.111Z,71.00
2019-05-30T20:39:44.390Z,71.90
2019-05-30T20:44:44.063Z,72.70
2019-05-30T20:49:43.729Z,72.00
2019-05-30T20:54:43.555Z,72.20
2019-05-30T20:59:44.319Z,71.90
2019-05-30T21:04:43.987Z,72.20
2019-05-30T21:09:44.264Z,72.90
2019-05-30T21:14:47.071Z,73.10
2019-05-30T21:19:46.793Z,73.10
2019-05-30T21:24:47.432Z,73.20
2019-05-30T21:29:47.623Z,73.80
2019-05-30T21:34:48.597Z,73.70
2019-05-30T21:39:49.455Z,74.20
2019-05-30T21:44:52.378Z,74.20
2019-05-30T21:49:51.020Z,74.50
2019-05-30T21:54:50.824Z,74.40
2019-05-30T21:59:51.065Z,74.50
2019-05-30T22:04:50.850Z,74.40
2019-05-30T22:09:51.518Z,74.70
2019-05-30T22:14:51.988Z,74.30
2019-05-30T22:19:52.257Z,74.70
2019-05-30T22:24:52.405Z,74.50
2019-05-30T22:29:53.534Z,75.10
2019-05-30T22:34:53.202Z,75.10
2019-05-30T22:39:53.595Z,75.10
2019-05-30T22:44:53.808Z,75.20
2019-05-30T22:49:53.479Z,75.90
2019-05-30T22:54:53.309Z,75.50
2019-05-30T22:59:53.128Z,76.80
2019-05-30T23:04:52.755Z,76.10
2019-05-30T23:09:53.986Z,76.00
2019-05-30T23:14:54.284Z,75.70
2019-05-30T23:19:54.836Z,76.00
2019-05-30T23:24:55.527Z,76.10
2019-05-30T23:29:55.990Z,76.20
2019-05-30T23:34:56.413Z,76.00
2019-05-30T23:39:56.864Z,75.90
2019-05-30T23:44:57.539Z,76.20
2019-05-30T23:49:58.197Z,76.80
2019-05-30T23:54:58.293Z,76.30
2019-05-30T23:59:58.824Z,76.90
